createdAt,value
2017-12-20T00:04:37.957Z,93.01
2017-12-20T00:10:41.424Z,93.05
2017-12-20T00:16:44.925Z,93.11
2017-12-20T00:22:48.495Z,93.34
2017-12-20T00:28:52.622Z,93.34
2017-12-20T00:34:56.342Z,93.28
2017-12-20T00:40:59.799Z,93.30
2017-12-20T00:47:03.393Z,93.26
2017-12-20T00:53:06.918Z,93.11
2017-12-20T00:59:11.279Z,93.15
2017-12-20T01:05:14.761Z,93.21
2017-12-20T01:11:18.993Z,93.12
2017-12-20T01:17:22.502Z,93.15
2017-12-20T01:23:26.056Z,93.15
2017-12-20T01:29:30.299Z,93.08
2017-12-20T01:35:33.804Z,93.15
2017-12-20T01:41:37.276Z,93.23
2017-12-20T01:47:40.870Z,93.34
2017-12-20T01:53:45.174Z,93.45
2017-12-20T01:59:48.684Z,93.41
2017-12-20T02:05:52.431Z,93.26
2017-12-20T02:11:55.970Z,93.30
2017-12-20T02:17:59.484Z,93.25
2017-12-20T02:24:03.766Z,93.25
2017-12-20T02:30:07.236Z,93.30
2017-12-20T02:36:11.654Z,93.34
2017-12-20T02:42:16.187Z,93.27
2017-12-20T02:48:19.690Z,93.37
2017-12-20T02:54:23.526Z,93.49
2017-12-20T03:00:27.869Z,93.30
2017-12-20T03:06:31.458Z,93.20
2017-12-20T03:12:35.221Z,93.33
2017-12-20T03:18:38.835Z,93.23
2017-12-20T03:24:42.480Z,93.10
2017-12-20T03:30:46.964Z,93.17
2017-12-20T03:36:50.601Z,93.22
2017-12-20T03:42:54.421Z,93.28
2017-12-20T03:48:57.912Z,93.38
2017-12-20T03:55:01.456Z,93.35
2017-12-20T04:01:04.988Z,93.23
2017-12-20T04:07:08.865Z,93.25
2017-12-20T04:13:12.478Z,93.45
2017-12-20T04:19:16.419Z,93.28
2017-12-20T04:25:20.649Z,93.37
2017-12-20T04:31:24.313Z,93.44
2017-12-20T04:37:27.825Z,93.32
2017-12-20T04:43:31.498Z,93.49
2017-12-20T04:49:35.486Z,93.49
2017-12-20T04:55:39.000Z,93.52
2017-12-20T05:01:42.508Z,93.64
2017-12-20T05:07:46.076Z,93.60
2017-12-20T05:13:49.785Z,93.72
2017-12-20T05:19:53.471Z,93.63
2017-12-20T05:25:57.111Z,93.53
2017-12-20T05:32:00.637Z,93.62
2017-12-20T05:38:04.154Z,93.53
2017-12-20T05:44:07.659Z,93.50
2017-12-20T05:50:11.264Z,93.65
2017-12-20T05:56:14.904Z,93.71
2017-12-20T06:02:18.490Z,93.74
2017-12-20T06:08:22.034Z,93.73
2017-12-20T06:14:25.594Z,93.58
2017-12-20T06:20:29.201Z,93.73
2017-12-20T06:26:32.726Z,93.61
2017-12-20T06:32:36.294Z,93.81
2017-12-20T06:38:39.799Z,93.76
2017-12-20T06:44:43.275Z,93.77
2017-12-20T06:50:47.650Z,93.73
2017-12-20T06:56:52.208Z,93.68
2017-12-20T07:02:56.580Z,93.79
2017-12-20T07:09:00.057Z,94.02
2017-12-20T07:15:04.317Z,94.25
2017-12-20T07:21:07.807Z,94.24
2017-12-20T07:27:11.373Z,94.25
2017-12-20T07:33:14.834Z,94.20
2017-12-20T07:39:18.327Z,94.15
2017-12-20T07:45:21.806Z,94.06
2017-12-20T07:51:26.076Z,94.12
2017-12-20T07:57:30.361Z,93.98
2017-12-20T08:03:33.844Z,93.95
2017-12-20T08:09:37.449Z,93.88
2017-12-20T08:15:41.097Z,93.95
2017-12-20T08:21:44.599Z,93.93
2017-12-20T08:27:48.091Z,93.80
2017-12-20T08:33:51.740Z,93.69
2017-12-20T08:39:55.256Z,93.66
2017-12-20T08:45:58.751Z,93.55
2017-12-20T08:52:02.226Z,93.44
2017-12-20T08:58:05.718Z,93.34
2017-12-20T09:04:09.292Z,92.77
2017-12-20T09:10:12.816Z,92.45
2017-12-20T09:16:16.580Z,92.26
2017-12-20T09:22:20.140Z,92.50
2017-12-20T09:28:23.830Z,92.17
2017-12-20T09:34:27.352Z,92.13
2017-12-20T09:40:30.978Z,91.97
2017-12-20T09:46:34.500Z,91.94
2017-12-20T09:52:38.036Z,91.32
2017-12-20T09:58:41.619Z,91.82
2017-12-20T10:04:45.130Z,91.93
2017-12-20T10:10:48.644Z,91.75
2017-12-20T10:16:53.502Z,91.54
2017-12-20T10:22:56.982Z,91.46
2017-12-20T10:29:00.490Z,91.55
2017-12-20T10:35:04.086Z,91.17
2017-12-20T10:41:07.551Z,91.40
2017-12-20T10:47:11.034Z,90.95
2017-12-20T10:53:14.547Z,90.79
2017-12-20T10:59:18.044Z,90.55
2017-12-20T11:05:21.625Z,90.43
2017-12-20T11:11:25.249Z,90.50
2017-12-20T11:17:29.582Z,89.84
2017-12-20T11:23:33.035Z,90.17
2017-12-20T11:29:36.575Z,90.08
2017-12-20T11:35:40.175Z,89.00
2017-12-20T11:41:43.844Z,89.56
2017-12-20T11:47:47.394Z,90.61
2017-12-20T11:53:51.474Z,90.35
2017-12-20T11:59:55.312Z,90.39
2017-12-20T12:05:58.916Z,90.01
2017-12-20T12:12:02.570Z,89.56
2017-12-20T12:18:06.042Z,90.66
2017-12-20T12:24:09.515Z,90.54
2017-12-20T12:30:13.019Z,90.95
2017-12-20T12:36:16.751Z,90.58
2017-12-20T12:42:21.000Z,90.25
2017-12-20T12:48:24.612Z,90.22
2017-12-20T12:54:28.097Z,90.45
2017-12-20T13:00:31.585Z,90.59
2017-12-20T13:06:35.900Z,90.61
2017-12-20T13:12:39.386Z,90.53
2017-12-20T13:18:42.975Z,90.64
2017-12-20T13:24:46.617Z,90.65
2017-12-20T13:30:50.115Z,90.63
2017-12-20T13:36:53.735Z,90.87
2017-12-20T13:42:57.984Z,91.36
2017-12-20T13:49:01.489Z,91.49
2017-12-20T13:55:05.007Z,91.71
2017-12-20T14:01:08.496Z,91.69
2017-12-20T14:07:12.030Z,91.53
2017-12-20T14:13:16.277Z,91.91
2017-12-20T14:19:19.755Z,91.90
2017-12-20T14:25:24.246Z,92.12
2017-12-20T14:31:27.737Z,92.09
2017-12-20T14:37:31.242Z,92.25
2017-12-20T14:43:35.480Z,92.06
2017-12-20T14:49:38.968Z,92.05
2017-12-20T14:55:43.240Z,92.31
2017-12-20T15:01:47.488Z,92.55
2017-12-20T15:07:51.303Z,92.51
2017-12-20T15:13:54.816Z,92.71
2017-12-20T15:19:59.081Z,92.62
2017-12-20T15:26:02.586Z,92.79
2017-12-20T15:32:06.379Z,92.88
2017-12-20T15:38:10.155Z,93.26
2017-12-20T15:44:13.758Z,93.18
2017-12-20T15:50:17.356Z,93.24
2017-12-20T15:56:21.107Z,93.20
2017-12-20T16:02:24.610Z,93.29
2017-12-20T16:08:28.084Z,93.20
2017-12-20T16:14:31.571Z,93.26
2017-12-20T16:20:35.087Z,93.12
2017-12-20T16:26:38.615Z,93.16
2017-12-20T16:32:42.188Z,93.02
2017-12-20T16:38:45.745Z,93.26
2017-12-20T16:44:49.235Z,93.08
2017-12-20T16:50:53.766Z,93.21
2017-12-20T16:56:57.330Z,93.22
2017-12-20T17:03:00.816Z,93.40
2017-12-20T17:09:04.280Z,93.46
2017-12-20T17:15:07.826Z,93.49
2017-12-20T17:21:11.334Z,93.39
2017-12-20T17:27:15.569Z,93.43
2017-12-20T17:33:19.105Z,93.42
2017-12-20T17:39:22.707Z,93.63
2017-12-20T17:45:26.947Z,93.69
2017-12-20T17:51:30.732Z,93.56
2017-12-20T17:57:34.208Z,93.40
2017-12-20T18:03:38.581Z,93.57
2017-12-20T18:09:42.845Z,93.64
2017-12-20T18:15:46.363Z,93.83
2017-12-20T18:21:49.900Z,93.81
2017-12-20T18:27:53.473Z,93.66
2017-12-20T18:33:57.020Z,93.68
2017-12-20T18:40:00.521Z,93.53
2017-12-20T18:46:04.770Z,93.21
2017-12-20T18:52:08.302Z,93.02
2017-12-20T18:58:11.969Z,92.92
2017-12-20T19:04:16.452Z,93.21
2017-12-20T19:10:19.974Z,93.35
2017-12-20T19:16:23.884Z,93.39
2017-12-20T19:22:27.418Z,93.33
2017-12-20T19:28:31.019Z,93.37
2017-12-20T19:34:34.655Z,93.27
2017-12-20T19:40:38.190Z,93.30
2017-12-20T19:46:41.704Z,93.32
2017-12-20T19:52:45.324Z,93.35
2017-12-20T19:58:49.867Z,93.40
2017-12-20T20:04:53.615Z,93.14
2017-12-20T20:10:57.953Z,92.91
2017-12-20T20:17:02.609Z,92.96
2017-12-20T20:23:06.094Z,93.06
2017-12-20T20:29:09.571Z,93.16
2017-12-20T20:35:13.051Z,93.02
2017-12-20T20:41:16.757Z,92.92
2017-12-20T20:47:21.152Z,93.04
2017-12-20T20:53:25.225Z,93.10
2017-12-20T20:59:28.767Z,93.16
2017-12-20T21:05:32.321Z,93.16
2017-12-20T21:11:36.110Z,93.21
2017-12-20T21:17:39.586Z,93.40
2017-12-20T21:23:43.095Z,93.34
2017-12-20T21:29:46.626Z,93.24
2017-12-20T21:35:50.973Z,93.12
2017-12-20T21:41:54.528Z,92.96
2017-12-20T21:47:58.768Z,92.91
2017-12-20T21:54:02.258Z,92.91
2017-12-20T22:00:05.760Z,93.05
2017-12-20T22:06:09.310Z,93.14
2017-12-20T22:12:12.833Z,93.28
2017-12-20T22:18:17.112Z,93.14
2017-12-20T22:24:21.431Z,93.49
2017-12-20T22:30:26.904Z,92.47
2017-12-20T22:36:30.425Z,92.57
2017-12-20T22:42:33.926Z,92.71
2017-12-20T22:48:37.411Z,92.64
2017-12-20T22:54:40.943Z,92.56
2017-12-20T23:00:44.415Z,92.64
2017-12-20T23:06:47.909Z,93.01
2017-12-20T23:12:51.529Z,93.27
2017-12-20T23:18:55.018Z,93.42
2017-12-20T23:24:59.283Z,93.59
2017-12-20T23:31:02.995Z,93.62
2017-12-20T23:37:06.716Z,93.53
2017-12-20T23:43:10.342Z,93.45
2017-12-20T23:49:13.836Z,93.50
2017-12-20T23:55:17.324Z,93.70
